Terminal Aerodrome Forecast
Issued by NWS Upton, NY

Home | Current Version | Previous Version | Text Only | Print | Product List | Glossary On
Versions: 1 2 3 4 5 6 7 8 9 10 11 12 13 14 15 16 17 18 19 20 21 22 23 24 25 26 27 28 29 30 31 32 33 34 35
000
FTUS41 KOKX 080532
TAFEWR
TAF
KEWR 080532Z 0806/0912 VRB04KT P6SM SCT040 BKN250
     FM081400 27010KT P6SM BKN120
     FM081800 26015G22KT P6SM FEW050
     FM082300 28014G24KT P6SM SCT030=

USA.gov is the U.S. government's official web portal to all federal, state and local government web resources and services.